Time;durP1;ratioP1;P1;durP2;ratioP2;P2;SDS_P1;SDS_P2;PMS_P1;PMS_P2;Temp;Humidity;BMP_temperature;BMP_pressure;BME280_temperature;BME280_humidity;BME280_pressure;Samples;Min_cycle;Max_cycle;Signal;HPM_P1;HPM_P2
2021/01/26 00:01:05;;;;;;;12.75;8.43;;;1.90;76.40;;;0.84;61.50;94049.44;5035327;28;20210;-83
2021/01/26 00:03:33;;;;;;;15.77;9.93;;;1.90;76.30;;;0.80;61.98;94050.72;5051346;28;20206;-83
2021/01/26 00:06:00;;;;;;;13.02;8.73;;;1.90;76.40;;;0.80;61.76;94050.72;5051720;28;20601;-83
2021/01/26 00:08:27;;;;;;;15.00;8.60;;;1.90;76.40;;;0.78;61.62;94057.81;5051170;28;20310;-83
2021/01/26 00:10:54;;;;;;;14.85;9.70;;;1.90;76.40;;;0.79;61.64;94055.09;5051971;28;20311;-83
2021/01/26 00:13:21;;;;;;;15.63;9.85;;;1.90;76.40;;;0.77;61.58;94062.19;5051080;28;20295;-83
2021/01/26 00:15:48;;;;;;;17.98;10.43;;;1.90;76.40;;;0.78;62.06;94065.56;5051495;28;20231;-83
2021/01/26 00:18:15;;;;;;;16.33;9.85;;;1.90;76.50;;;0.75;61.87;94066.66;5051844;28;20196;-82
2021/01/26 00:20:44;;;;;;;18.38;10.38;;;1.90;76.50;;;0.73;62.09;94067.78;5034807;28;20216;-83
2021/01/26 00:23:12;;;;;;;16.33;10.05;;;1.90;76.50;;;0.74;61.80;94064.25;5034661;28;20204;-83
2021/01/26 00:25:40;;;;;;;15.27;9.40;;;1.90;76.40;;;0.69;61.71;94067.28;5051289;28;20243;-81
2021/01/26 00:28:10;;;;;;;17.17;9.10;;;1.80;76.30;;;0.67;61.37;94076.94;5051180;28;20215;-84
2021/01/26 00:30:40;;;;;;;14.45;9.30;;;1.80;76.10;;;0.57;61.04;94056.41;5051750;28;20732;-84
2021/01/26 00:33:19;;;;;;;15.40;9.85;;;1.80;76.00;;;0.53;61.35;94073.16;5053275;28;20206;-83
2021/01/26 00:35:47;;;;;;;15.98;9.60;;;1.90;76.20;;;0.47;61.58;94079.72;5038665;28;20728;-84
2021/01/26 00:38:14;;;;;;;17.00;9.82;;;1.70;76.10;;;0.40;61.84;94081.28;5022204;28;20203;-83
2021/01/26 00:40:41;;;;;;;14.82;9.88;;;1.60;76.00;;;0.39;61.68;94084.00;5039008;28;20318;-83
2021/01/26 00:43:10;;;;;;;15.05;9.63;;;1.60;76.10;;;0.36;61.80;94087.69;5038920;28;20211;-83
2021/01/26 00:45:38;;;;;;;15.55;9.80;;;1.60;76.10;;;0.34;61.64;94091.41;5037987;28;20219;-83
2021/01/26 00:48:06;;;;;;;17.33;9.68;;;1.50;76.10;;;0.32;61.55;94096.72;5021324;28;20218;-82
2021/01/26 00:50:34;;;;;;;14.82;9.35;;;1.50;76.10;;;0.32;61.61;94097.50;5070957;28;20258;-83
2021/01/26 00:53:03;;;;;;;15.98;9.90;;;1.50;76.20;;;0.30;61.63;94099.41;5054686;28;20659;-84
2021/01/26 00:55:39;;;;;;;15.38;9.20;;;1.50;76.20;;;0.31;61.85;94100.25;5040581;28;20250;-84
2021/01/26 00:58:08;;;;;;;12.13;8.13;;;1.40;76.20;;;0.30;61.75;94101.19;5022521;28;20192;-83
2021/01/26 01:00:38;;;;;;;10.85;7.05;;;1.50;76.30;;;0.27;61.59;94092.00;5021834;28;20701;-83
2021/01/26 01:03:10;;;;;;;10.77;6.80;;;1.50;76.30;;;0.28;62.03;94096.19;5054646;28;20257;-83
2021/01/26 01:05:37;;;;;;;8.60;6.05;;;1.40;76.20;;;0.28;61.40;94106.50;5038291;28;20322;-84
2021/01/26 01:08:04;;;;;;;11.50;6.88;;;1.40;76.10;;;0.32;61.27;94107.81;5054193;28;20216;-84
2021/01/26 01:10:41;;;;;;;12.27;6.28;;;1.40;76.90;;;0.33;61.39;94118.97;5039090;28;20208;-83
2021/01/26 01:13:10;;;;;;;8.38;5.72;;;1.40;76.10;;;0.31;61.34;94116.50;5055450;28;20210;-83
2021/01/26 01:15:41;;;;;;;11.13;5.95;;;1.40;76.10;;;0.32;61.08;94122.50;5054917;28;20218;-83
2021/01/26 01:18:08;;;;;;;9.10;5.50;;;1.40;76.00;;;0.34;61.01;94117.19;5055242;28;20188;-84
2021/01/26 01:20:35;;;;;;;8.27;5.50;;;1.40;76.00;;;0.36;60.93;94120.44;5054472;28;20220;-83
2021/01/26 01:23:04;;;;;;;8.98;5.88;;;1.40;75.90;;;0.35;60.91;94122.19;5054313;28;20254;-84
2021/01/26 01:25:31;;;;;;;7.57;5.30;;;1.40;75.90;;;0.36;60.87;94125.59;5038139;28;20307;-82
2021/01/26 01:27:58;;;;;;;8.18;5.90;;;1.40;75.80;;;0.30;60.92;94114.09;5054707;28;20273;-83
2021/01/26 01:30:32;;;;;;;11.13;6.50;;;1.40;75.90;;;0.36;60.79;94128.97;5037818;28;20216;-82
2021/01/26 01:33:01;;;;;;;10.02;5.90;;;1.40;75.90;;;0.33;60.92;94121.53;5055162;28;20271;-83
2021/01/26 01:35:28;;;;;;;8.55;5.82;;;1.40;75.90;;;0.35;60.84;94129.94;5020747;28;20224;-83
2021/01/26 01:37:56;;;;;;;9.73;6.03;;;1.50;75.90;;;0.32;60.57;94127.66;5037222;28;20196;-84
2021/01/26 01:40:31;;;;;;;10.18;6.70;;;1.40;75.80;;;0.33;60.61;94131.88;5054177;28;20678;-83
2021/01/26 01:42:58;;;;;;;8.73;5.85;;;1.50;76.00;;;0.31;61.43;94133.78;5054316;28;20196;-84
2021/01/26 01:45:26;;;;;;;10.23;6.18;;;1.40;75.90;;;0.34;61.04;94137.81;5070716;28;20753;-83
2021/01/26 01:48:20;;;;;;;8.35;5.70;;;1.40;75.90;;;0.33;60.88;94144.75;5037571;28;20243;-83
2021/01/26 01:51:17;;;;;;;10.35;6.30;;;1.40;75.90;;;0.32;61.19;94148.28;5050316;28;20327;-82
2021/01/26 01:53:57;;;;;;;10.55;7.40;;;1.40;76.00;;;0.30;61.21;94145.03;5053874;28;20204;-82
2021/01/26 01:56:49;;;;;;;11.77;7.20;;;1.50;76.10;;;0.31;61.34;94147.47;5037861;28;20214;-83
2021/01/26 01:59:25;;;;;;;10.75;6.88;;;1.40;76.10;;;0.30;60.98;94143.25;5025126;28;20200;-83
2021/01/26 02:01:52;;;;;;;13.30;7.90;;;1.40;76.10;;;0.32;61.77;94149.09;5037665;28;20241;-84
2021/01/26 02:04:23;;;;;;;13.30;8.15;;;1.40;76.90;;;0.34;61.45;94150.72;5037756;28;20286;-83
2021/01/26 02:06:56;;;;;;;13.35;7.68;;;1.40;76.10;;;0.34;61.42;94154.09;5053990;28;20197;-82
2021/01/26 02:09:33;;;;;;;14.77;8.23;;;1.40;76.20;;;0.33;61.52;94160.25;5053166;28;20203;-83
2021/01/26 02:12:01;;;;;;;13.07;8.18;;;1.40;76.30;;;0.38;61.56;94162.34;5037525;28;20559;-84
2021/01/26 02:14:35;;;;;;;13.80;8.23;;;1.40;76.10;;;0.35;61.32;94153.13;5053721;28;20226;-84
2021/01/26 02:17:39;;;;;;;14.27;9.10;;;1.40;76.20;;;0.34;61.82;94156.69;5037327;28;20195;-83
2021/01/26 02:20:54;;;;;;;15.18;9.15;;;1.50;76.30;;;0.27;61.37;94177.09;5069966;28;20310;-83
2021/01/26 02:23:57;;;;;;;14.15;9.00;;;1.50;76.30;;;0.21;61.09;94166.53;5045835;28;20207;-83
2021/01/26 02:27:01;;;;;;;14.82;9.15;;;1.40;76.10;;;0.14;61.63;94166.34;5053880;28;20207;-83
2021/01/26 02:29:59;;;;;;;14.50;9.70;;;1.40;76.10;;;0.09;61.48;94174.50;5033321;28;20789;-84
2021/01/26 02:33:13;;;;;;;16.67;9.90;;;1.40;76.10;;;0.04;61.58;94170.72;5033969;28;20195;-83
2021/01/26 02:35:55;;;;;;;15.00;9.80;;;1.30;76.10;;;0.03;62.13;94174.28;5069323;28;20234;-83
2021/01/26 02:38:52;;;;;;;16.55;10.48;;;1.30;76.20;;;0.06;61.82;94181.72;5052875;28;20693;-83
2021/01/26 02:41:31;;;;;;;19.13;11.50;;;1.20;76.30;;;0.07;62.52;94178.97;5054739;28;20212;-83
2021/01/26 02:44:23;;;;;;;16.17;10.15;;;1.20;76.50;;;0.09;62.30;94178.88;5019556;28;20199;-83
2021/01/26 02:47:02;;;;;;;14.65;10.13;;;1.20;76.70;;;0.11;62.46;94180.34;5020321;28;20275;-84
2021/01/26 02:49:39;;;;;;;16.20;10.43;;;1.30;76.70;;;0.18;62.33;94182.31;5036133;28;20200;-83
2021/01/26 02:52:17;;;;;;;17.85;10.88;;;1.30;76.80;;;0.21;62.26;94182.84;5036760;28;20208;-83
2021/01/26 02:55:17;;;;;;;16.25;10.50;;;1.30;76.80;;;0.23;62.27;94183.53;5032884;28;20290;-83
2021/01/26 02:57:53;;;;;;;16.95;10.68;;;1.30;76.80;;;0.28;62.37;94189.03;5034795;28;20247;-83
2021/01/26 03:00:31;;;;;;;16.48;10.55;;;1.30;76.80;;;0.31;62.16;94186.16;5036340;28;20685;-83
2021/01/26 03:03:09;;;;;;;14.73;10.02;;;1.30;76.70;;;0.35;61.99;94188.47;5052771;28;20194;-83
2021/01/26 03:05:46;;;;;;;15.80;10.70;;;1.40;76.80;;;0.36;62.00;94192.66;5035645;28;20281;-84
2021/01/26 03:08:32;;;;;;;17.65;11.60;;;1.40;76.80;;;0.34;62.04;94194.56;5068746;28;20218;-83
2021/01/26 03:11:17;;;;;;;16.88;10.40;;;1.40;76.90;;;0.38;62.05;94193.31;5035907;28;20289;-83
2021/01/26 03:13:56;;;;;;;16.17;10.18;;;1.50;77.60;;;0.36;62.42;94193.47;5036070;28;20204;-83
2021/01/26 03:16:26;;;;;;;17.98;11.25;;;1.50;76.90;;;0.37;62.56;94202.81;5019924;28;20230;-83
2021/01/26 03:19:14;;;;;;;16.02;11.15;;;1.50;76.80;;;0.39;62.13;94195.75;5052696;28;20269;-83
2021/01/26 03:21:50;;;;;;;18.52;11.88;;;1.50;76.90;;;0.41;62.14;94211.09;5030778;28;20711;-83
2021/01/26 03:24:28;;;;;;;21.05;13.00;;;1.50;76.80;;;0.39;62.36;94213.81;5048379;28;20204;-83
2021/01/26 03:26:57;;;;;;;18.02;11.85;;;1.50;76.90;;;0.38;62.15;94209.63;5017717;28;20254;-82
2021/01/26 03:29:29;;;;;;;18.52;12.25;;;1.50;76.90;;;0.39;62.53;94213.81;5048971;28;20592;-83
2021/01/26 03:32:06;;;;;;;18.75;12.35;;;1.50;76.90;;;0.40;62.56;94214.63;5031908;28;20294;-83
2021/01/26 03:34:35;;;;;;;15.57;10.85;;;1.50;77.00;;;0.42;62.34;94212.72;5050809;28;20199;-83
2021/01/26 03:37:02;;;;;;;18.67;12.40;;;1.50;76.90;;;0.36;62.51;94205.56;5051500;28;20738;-83
2021/01/26 03:39:30;;;;;;;17.50;11.88;;;1.50;77.00;;;0.40;62.31;94215.41;5033849;28;20563;-83
2021/01/26 03:41:58;;;;;;;19.52;12.43;;;1.50;77.50;;;0.36;62.79;94210.72;5033597;28;20270;-82
2021/01/26 03:44:25;;;;;;;18.13;12.25;;;1.50;77.00;;;0.35;62.52;94209.09;5034532;28;20821;-83
2021/01/26 03:47:09;;;;;;;18.30;12.32;;;1.50;77.00;;;0.37;62.47;94217.50;5032231;28;20223;-82
2021/01/26 03:50:09;;;;;;;18.02;11.30;;;1.50;77.00;;;0.34;62.47;94217.78;5031987;28;20216;-83
2021/01/26 03:53:06;;;;;;;17.63;11.55;;;1.50;77.00;;;0.34;62.28;94222.94;5078511;28;20200;-83
2021/01/26 03:56:13;;;;;;;20.00;13.00;;;1.50;76.90;;;0.26;62.88;94221.91;5047347;28;20258;-82
2021/01/26 03:59:19;;;;;;;17.08;10.50;;;1.50;77.00;;;0.26;62.27;94231.41;5050395;28;20261;-83
2021/01/26 04:02:14;;;;;;;18.45;12.10;;;1.40;76.80;;;0.20;62.67;94232.00;5033088;28;20203;-82
2021/01/26 04:05:07;;;;;;;18.05;12.02;;;1.40;76.90;;;0.15;62.83;94237.59;5047433;28;20220;-81
2021/01/26 04:07:44;;;;;;;16.88;11.55;;;1.40;76.90;;;0.15;62.72;94235.00;5032231;28;20701;-82
2021/01/26 04:10:30;;;;;;;20.23;12.60;;;1.40;76.90;;;0.13;62.52;94239.50;5065761;28;20704;-83
2021/01/26 04:13:03;;;;;;;18.42;12.45;;;1.30;76.90;;;0.14;62.89;94231.59;5032914;28;20629;-83
2021/01/26 04:15:48;;;;;;;17.92;12.63;;;1.30;76.90;;;0.11;62.88;94238.81;5057217;28;20297;-82
2021/01/26 04:18:18;;;;;;;17.33;11.57;;;1.30;76.90;;;0.16;62.45;94246.94;5044803;28;20666;-82
2021/01/26 04:20:49;;;;;;;18.33;11.95;;;1.30;76.90;;;0.13;62.44;94240.28;5062503;28;22205;-82
2021/01/26 04:23:17;;;;;;;19.00;12.18;;;1.30;76.90;;;0.15;62.98;94247.91;5049508;28;20204;-83
2021/01/26 04:25:48;;;;;;;19.17;12.90;;;1.30;77.00;;;0.18;63.21;94249.38;5064700;28;20232;-83
2021/01/26 04:28:35;;;;;;;18.10;12.50;;;1.30;77.10;;;0.18;62.79;94255.34;5043552;28;20224;-83
2021/01/26 04:31:04;;;;;;;21.48;12.70;;;1.30;77.10;;;0.19;62.64;94261.31;5029272;28;20736;-82
2021/01/26 04:33:31;;;;;;;19.25;12.45;;;1.30;77.10;;;0.16;63.12;94259.84;5033480;28;20759;-83
2021/01/26 04:35:58;;;;;;;19.52;13.20;;;1.30;77.10;;;0.12;63.42;94256.75;5029531;28;20236;-82
2021/01/26 04:38:25;;;;;;;17.85;12.48;;;1.30;77.30;;;0.13;63.18;94257.53;5031833;28;20200;-82
2021/01/26 04:41:03;;;;;;;17.00;11.27;;;1.30;77.20;;;0.15;62.61;94256.44;5031764;28;20285;-82
2021/01/26 04:44:11;;;;;;;19.52;12.88;;;1.30;77.10;;;0.10;62.84;94258.63;5070718;28;20230;-83
2021/01/26 04:46:51;;;;;;;17.95;12.93;;;1.30;77.20;;;0.10;62.92;94261.22;5050277;28;20524;-83
2021/01/26 04:49:25;;;;;;;21.63;13.82;;;1.30;78.00;;;0.08;62.90;94260.53;5063500;28;20224;-82
2021/01/26 04:52:20;;;;;;;20.98;13.23;;;1.30;77.20;;;0.05;62.62;94255.69;5033228;28;20198;-83
2021/01/26 04:55:21;;;;;;;21.20;13.10;;;1.30;77.20;;;0.04;62.79;94260.97;5048845;28;20224;-82
2021/01/26 04:58:12;;;;;;;18.50;12.05;;;1.20;77.10;;;0.01;62.64;94271.59;5032662;28;20238;-82
2021/01/26 05:01:30;;;;;;;19.08;12.10;;;1.20;77.00;;;-0.05;62.48;94275.53;5016076;28;20273;-83
2021/01/26 05:04:13;;;;;;;19.27;12.35;;;1.20;77.00;;;-0.17;62.94;94278.28;5032454;28;20208;-83
2021/01/26 05:07:12;;;;;;;17.95;12.00;;;1.20;77.00;;;-0.17;62.92;94285.22;5065765;28;20422;-83
2021/01/26 05:09:54;;;;;;;21.10;12.77;;;1.10;76.90;;;-0.21;62.86;94276.97;5066451;28;20216;-83
2021/01/26 05:12:23;;;;;;;18.15;11.88;;;1.10;77.00;;;-0.24;63.03;94289.31;5051583;28;20662;-83
2021/01/26 05:14:59;;;;;;;22.15;12.60;;;1.10;77.10;;;-0.27;63.29;94287.84;5049580;28;20247;-83
2021/01/26 05:17:42;;;;;;;19.33;12.45;;;1.00;77.00;;;-0.30;63.34;94293.25;5034858;28;20642;-83
2021/01/26 05:20:14;;;;;;;19.80;12.25;;;1.00;77.10;;;-0.28;62.96;94281.06;5038157;28;20262;-83
2021/01/26 05:23:08;;;;;;;19.95;12.95;;;1.00;77.00;;;-0.30;62.86;94293.25;5037962;28;20196;-83
2021/01/26 05:25:35;;;;;;;22.58;13.60;;;0.90;77.10;;;-0.36;62.99;94292.06;5054938;28;20216;-83
2021/01/26 05:28:02;;;;;;;21.55;13.27;;;0.90;77.80;;;-0.36;63.25;94296.41;5021886;28;20216;-83
2021/01/26 05:30:35;;;;;;;21.77;12.38;;;0.90;77.10;;;-0.36;63.03;94292.06;5055087;28;20216;-83
2021/01/26 05:33:11;;;;;;;18.83;12.23;;;1.00;77.10;;;-0.38;62.96;94285.41;5021732;28;20216;-82
2021/01/26 05:35:44;;;;;;;19.40;13.18;;;0.80;77.00;;;-0.43;63.24;94297.91;5034567;28;20714;-84
2021/01/26 05:38:11;;;;;;;18.95;12.23;;;0.80;77.10;;;-0.49;63.35;94291.53;5034466;28;20203;-82
2021/01/26 05:40:43;;;;;;;21.13;13.02;;;0.80;77.20;;;-0.49;63.20;94288.97;5048745;28;20273;-83
2021/01/26 05:43:16;;;;;;;17.75;12.05;;;0.80;77.10;;;-0.47;62.88;94292.22;5054154;28;20291;-82
2021/01/26 05:45:52;;;;;;;22.33;13.23;;;0.70;77.10;;;-0.51;63.22;94296.03;5054448;28;20227;-83
2021/01/26 05:48:23;;;;;;;19.67;13.20;;;0.80;77.20;;;-0.56;63.98;94300.78;5084472;28;20222;-82
2021/01/26 05:50:52;;;;;;;22.17;13.07;;;0.70;78.10;;;-0.55;63.67;94303.22;5034405;28;20242;-83
2021/01/26 05:53:30;;;;;;;19.80;12.75;;;0.70;77.30;;;-0.57;63.25;94302.53;5034106;28;20215;-83
2021/01/26 05:56:11;;;;;;;18.02;12.10;;;0.70;77.30;;;-0.58;63.48;94300.91;5035274;28;20701;-83
2021/01/26 05:58:43;;;;;;;19.77;12.45;;;0.70;77.20;;;-0.61;63.09;94297.81;5052020;28;20674;-82
2021/01/26 06:01:28;;;;;;;18.52;12.43;;;0.70;77.00;;;-0.70;62.75;94305.41;5050289;28;20215;-82
2021/01/26 06:04:17;;;;;;;16.27;10.82;;;0.70;77.00;;;-0.82;62.92;94303.94;5018817;28;20258;-83
2021/01/26 06:06:54;;;;;;;17.70;11.35;;;0.60;76.90;;;-0.88;63.15;94318.19;5051871;28;20197;-82
2021/01/26 06:09:37;;;;;;;14.23;10.27;;;0.50;76.80;;;-0.94;62.85;94323.03;5051358;28;20224;-82
2021/01/26 06:12:09;;;;;;;16.92;11.55;;;0.50;76.70;;;-1.04;63.50;94331.59;5068233;28;20260;-82
2021/01/26 06:14:36;;;;;;;16.13;10.80;;;0.50;76.80;;;-1.09;63.71;94336.31;5069166;28;20341;-83
2021/01/26 06:17:10;;;;;;;16.35;10.73;;;0.40;76.90;;;-1.14;64.17;94325.63;5052793;28;20215;-82
2021/01/26 06:19:39;;;;;;;17.27;11.60;;;0.40;77.20;;;-1.19;64.23;94332.94;5053418;28;20258;-82
2021/01/26 06:22:06;;;;;;;17.27;11.98;;;0.30;77.30;;;-1.09;64.14;94348.38;5053403;28;20527;-82
2021/01/26 06:24:37;;;;;;;14.80;10.50;;;0.20;77.40;;;-1.04;64.11;94351.34;5036246;28;20228;-81
2021/01/26 06:27:43;;;;;;;16.70;10.88;;;0.20;77.50;;;-0.99;64.33;94355.16;5052831;28;20573;-81
2021/01/26 06:30:29;;;;;;;18.35;10.95;;;0.20;77.80;;;-0.92;64.26;94359.78;5035184;28;20311;-82
2021/01/26 06:33:05;;;;;;;17.80;10.57;;;0.30;77.80;;;-0.88;64.31;94361.94;5036647;28;20582;-81
2021/01/26 06:35:38;;;;;;;20.05;11.95;;;0.30;77.80;;;-0.80;64.11;94371.56;5069517;28;20285;-82
2021/01/26 06:38:31;;;;;;;19.88;11.88;;;0.30;77.80;;;-0.76;64.10;94365.19;5036436;28;20200;-81
2021/01/26 06:41:58;;;;;;;14.63;9.77;;;0.40;77.90;;;-0.69;63.82;94368.84;5048109;28;20219;-82
2021/01/26 06:44:39;;;;;;;15.32;9.77;;;0.40;77.90;;;-0.66;63.68;94378.06;5045365;28;20646;-81
2021/01/26 06:47:37;;;;;;;16.42;10.18;;;0.40;77.90;;;-0.60;63.49;94376.69;5053127;28;20200;-81
2021/01/26 06:50:17;;;;;;;13.07;7.82;;;0.50;77.90;;;-0.56;63.60;94380.63;5052268;28;20216;-81
2021/01/26 06:53:15;;;;;;;14.05;9.30;;;0.50;77.90;;;-0.50;63.37;94377.50;5052923;28;20323;-81
2021/01/26 06:55:56;;;;;;;12.63;9.05;;;0.60;77.80;;;-0.44;63.10;94383.88;5068498;28;20224;-81
2021/01/26 06:58:50;;;;;;;12.70;8.52;;;0.60;77.80;;;-0.40;63.09;94377.50;5068788;28;20208;-82
2021/01/26 07:01:38;;;;;;;12.57;7.95;;;0.60;77.60;;;-0.38;62.84;94381.56;5041316;28;20601;-81
2021/01/26 07:04:29;;;;;;;13.25;8.45;;;0.70;77.60;;;-0.33;62.71;94381.97;5052412;28;20234;-81
2021/01/26 07:07:02;;;;;;;12.57;8.73;;;0.70;77.60;;;-0.30;62.89;94380.88;5068488;28;20271;-81
2021/01/26 07:10:19;;;;;;;12.18;8.73;;;0.70;77.50;;;-0.29;62.61;94381.69;5050016;28;20234;-82
2021/01/26 07:13:02;;;;;;;13.93;8.52;;;0.80;77.50;;;-0.23;62.69;94387.09;5052049;28;20204;-80
2021/01/26 07:15:59;;;;;;;10.13;7.55;;;0.80;77.50;;;-0.12;62.94;94387.88;5074686;28;20212;-81
2021/01/26 07:18:48;;;;;;;13.00;8.82;;;0.90;77.60;;;-0.04;62.56;94401.72;5028108;28;20200;-82
2021/01/26 07:21:42;;;;;;;11.85;8.30;;;0.90;77.60;;;0.06;62.55;94396.53;5056312;28;20232;-82
2021/01/26 07:24:30;;;;;;;12.43;8.95;;;1.00;77.60;;;0.08;62.42;94399.78;5048771;28;20605;-82
2021/01/26 07:27:03;;;;;;;14.10;8.90;;;1.00;77.50;;;0.14;62.47;94399.22;5043555;28;20196;-81
2021/01/26 07:30:26;;;;;;;11.90;8.75;;;1.10;77.50;;;0.17;62.20;94399.91;5049763;28;20228;-81
2021/01/26 07:33:07;;;;;;;13.43;7.70;;;1.10;77.40;;;0.23;62.08;94405.31;4973585;28;20202;-82
2021/01/26 07:35:53;;;;;;;13.43;9.70;;;1.20;77.40;;;0.25;62.31;94400.81;5031984;28;20235;-82
2021/01/26 07:38:33;;;;;;;16.65;10.05;;;1.30;77.40;;;0.29;62.21;94401.34;5032908;28;20575;-82
2021/01/26 07:41:14;;;;;;;14.10;10.23;;;1.30;78.10;;;0.30;62.00;94405.56;5050233;28;20281;-82
2021/01/26 07:43:53;;;;;;;13.52;9.90;;;1.30;77.30;;;0.30;61.96;94393.47;5046367;28;20200;-81
2021/01/26 07:46:36;;;;;;;15.25;10.75;;;1.40;77.30;;;0.34;62.07;94411.25;5024577;28;20698;-82
2021/01/26 07:49:31;;;;;;;17.25;10.93;;;1.40;77.30;;;0.40;62.11;94416.63;5050970;28;20215;-83
2021/01/26 07:52:02;;;;;;;14.82;10.60;;;1.40;77.30;;;0.40;62.05;94413.25;5066564;28;20202;-83
2021/01/26 07:54:45;;;;;;;14.68;10.20;;;1.40;77.20;;;0.34;61.72;94401.72;5032032;28;20270;-82
2021/01/26 07:57:17;;;;;;;15.23;10.40;;;1.60;77.20;;;0.36;61.63;94405.00;5067903;28;20184;-83
2021/01/26 07:59:53;;;;;;;13.00;9.30;;;1.50;76.90;;;0.34;61.48;94403.50;5050226;28;20243;-83
2021/01/26 08:02:31;;;;;;;12.77;9.05;;;1.50;76.90;;;0.28;61.49;94400.53;5050530;28;20184;-83
2021/01/26 08:04:58;;;;;;;12.38;8.38;;;1.50;76.70;;;0.27;61.54;94403.25;5033250;28;20219;-83
2021/01/26 08:07:31;;;;;;;13.82;8.30;;;1.40;76.60;;;0.22;60.83;94408.03;5032767;28;20195;-83
2021/01/26 08:10:02;;;;;;;11.90;8.23;;;1.40;76.50;;;0.12;61.24;94392.56;5033122;28;20426;-84
2021/01/26 08:12:31;;;;;;;10.80;7.32;;;1.40;76.40;;;0.19;61.06;94413.47;5050005;28;20237;-83
2021/01/26 08:15:26;;;;;;;14.10;7.70;;;1.40;76.40;;;0.13;60.92;94401.94;5067262;28;20253;-84
2021/01/26 08:17:54;;;;;;;9.90;7.43;;;1.40;76.30;;;0.12;60.92;94408.03;5081877;28;20203;-83
2021/01/26 08:20:23;;;;;;;10.02;6.88;;;1.30;76.20;;;0.13;60.71;94418.22;5017118;28;20208;-84
2021/01/26 08:23:10;;;;;;;11.57;6.82;;;1.30;76.00;;;0.08;60.62;94414.44;5067313;28;20260;-83
2021/01/26 08:25:40;;;;;;;9.38;6.53;;;1.30;76.00;;;0.12;60.57;94416.63;5033473;28;20219;-83
2021/01/26 08:28:07;;;;;;;8.25;6.25;;;1.30;76.00;;;0.12;60.21;94419.19;5050247;28;20227;-82
2021/01/26 08:30:49;;;;;;;8.95;6.68;;;1.30;75.90;;;0.14;59.97;94419.03;5048882;28;20249;-82
2021/01/26 08:33:18;;;;;;;9.32;6.60;;;1.30;75.70;;;0.13;60.08;94413.06;5055776;28;20291;-82
2021/01/26 08:36:08;;;;;;;9.82;6.78;;;1.30;75.80;;;0.15;59.22;94413.75;5043808;28;20326;-82
2021/01/26 08:39:15;;;;;;;9.88;6.90;;;1.30;75.50;;;0.18;59.55;94410.06;5054978;28;20232;-82
2021/01/26 08:41:48;;;;;;;10.45;7.55;;;1.30;75.40;;;0.27;58.97;94431.63;4951623;29;20293;-82
2021/01/26 08:44:20;;;;;;;9.80;6.78;;;1.30;75.50;;;0.35;59.02;94416.25;5018126;28;20662;-81
2021/01/26 08:46:51;;;;;;;10.18;6.90;;;1.30;75.40;;;0.43;58.83;94420.72;5064562;28;20196;-82
2021/01/26 08:49:32;;;;;;;9.10;6.60;;;1.40;75.50;;;0.53;58.97;94418.09;5048208;28;20242;-83
2021/01/26 08:52:19;;;;;;;9.77;6.60;;;1.40;75.50;;;0.64;58.97;94415.34;5048204;28;20262;-83
2021/01/26 08:54:52;;;;;;;11.27;7.28;;;1.50;75.40;;;0.70;58.21;94413.97;5066883;28;20211;-82
2021/01/26 08:57:29;;;;;;;11.20;7.40;;;1.50;75.20;;;0.80;58.09;94427.63;5033179;28;20556;-82
2021/01/26 09:00:23;;;;;;;9.40;6.78;;;1.60;75.20;;;0.84;57.37;94416.03;5049387;28;20224;-81
2021/01/26 09:02:52;;;;;;;13.85;9.13;;;1.70;75.00;;;0.91;57.96;94413.69;5040203;28;20254;-82
2021/01/26 09:05:40;;;;;;;11.55;7.65;;;1.80;75.10;;;1.03;57.48;94420.28;5045999;28;20219;-82
2021/01/26 09:08:07;;;;;;;12.93;9.02;;;1.80;75.00;;;1.11;57.28;94411.78;5068306;28;20358;-82
2021/01/26 09:10:49;;;;;;;10.48;8.05;;;1.90;75.00;;;1.23;57.19;94417.56;5018506;28;20261;-82
2021/01/26 09:13:32;;;;;;;9.90;7.38;;;1.90;74.70;;;1.35;56.90;94410.44;5052386;28;20580;-82
2021/01/26 09:16:23;;;;;;;11.20;7.30;;;2.00;74.60;;;1.55;57.60;94414.50;5036008;28;20218;-82
2021/01/26 09:19:33;;;;;;;9.70;6.82;;;2.10;74.90;;;1.84;57.45;94410.81;5037513;28;20208;-82
2021/01/26 09:22:14;;;;;;;11.43;7.45;;;2.30;75.20;;;2.07;57.10;94420.69;5037502;28;20672;-83
2021/01/26 09:24:41;;;;;;;10.82;7.15;;;2.50;75.20;;;2.24;55.08;94413.84;5037724;28;20269;-83
2021/01/26 09:27:35;;;;;;;9.98;7.93;;;2.60;74.70;;;2.40;55.88;94423.47;5054178;28;20686;-83
2021/01/26 09:30:24;;;;;;;11.88;7.45;;;2.80;74.60;;;2.48;55.63;94422.69;5051486;28;20224;-83
2021/01/26 09:33:09;;;;;;;10.13;6.95;;;2.90;74.30;;;2.59;55.46;94426.78;5038196;28;20705;-84
2021/01/26 09:36:01;;;;;;;12.23;7.75;;;3.10;74.30;;;2.64;55.68;94442.69;5053575;28;20250;-83
2021/01/26 09:38:45;;;;;;;8.93;6.47;;;3.20;74.30;;;2.58;56.50;94428.59;5070550;28;20206;-83
2021/01/26 09:41:31;;;;;;;8.32;6.10;;;3.30;74.40;;;2.53;57.15;94426.44;5053289;28;20219;-82
2021/01/26 09:44:11;;;;;;;9.13;6.63;;;3.40;74.90;;;2.50;57.99;94423.34;5053749;28;20220;-82
2021/01/26 09:46:47;;;;;;;9.13;5.82;;;3.40;75.20;;;2.52;58.59;94417.06;5054421;28;20195;-82
2021/01/26 09:49:27;;;;;;;8.23;6.35;;;3.40;75.40;;;2.60;58.67;94423.25;5018423;28;20226;-83
2021/01/26 09:52:11;;;;;;;9.70;6.80;;;3.40;75.40;;;2.67;58.75;94427.66;5034266;28;20647;-83
2021/01/26 09:54:41;;;;;;;13.02;8.10;;;3.40;75.60;;;2.76;58.84;94409.56;5037493;28;20747;-82
2021/01/26 09:57:16;;;;;;;9.32;7.03;;;3.50;75.80;;;2.79;58.57;94411.84;5054437;28;20200;-82
2021/01/26 09:59:44;;;;;;;13.85;10.15;;;3.50;75.60;;;2.79;58.43;94412.66;5053590;28;20215;-82
2021/01/26 10:02:14;;;;;;;8.95;7.10;;;3.60;75.50;;;2.74;58.52;94412.31;5037373;28;20245;-83
2021/01/26 10:04:43;;;;;;;9.02;6.90;;;3.60;75.50;;;2.74;58.61;94404.53;5035941;28;20220;-82
2021/01/26 10:07:21;;;;;;;9.90;7.80;;;3.60;75.30;;;2.75;58.59;94401.00;5038595;28;20195;-82
2021/01/26 10:09:49;;;;;;;8.98;6.68;;;3.60;75.40;;;2.82;58.86;94399.41;5020050;28;20224;-84
2021/01/26 10:12:27;;;;;;;8.68;6.30;;;3.60;75.60;;;2.91;58.76;94394.25;5037313;28;20274;-83
2021/01/26 10:15:30;;;;;;;9.30;6.25;;;3.70;75.70;;;3.02;58.96;94399.13;5053728;28;20216;-82
2021/01/26 10:18:28;;;;;;;9.70;6.65;;;3.70;75.60;;;3.11;58.87;94397.38;5066967;28;20250;-82
2021/01/26 10:21:03;;;;;;;8.38;6.40;;;3.70;75.60;;;3.27;59.52;94389.63;5052186;28;20231;-82
2021/01/26 10:23:31;;;;;;;9.43;6.45;;;4.00;76.10;;;3.41;58.97;94388.19;5035106;28;20607;-81
2021/01/26 10:26:09;;;;;;;8.27;6.72;;;3.90;76.00;;;3.48;58.36;94386.56;5033576;28;20330;-83
2021/01/26 10:28:57;;;;;;;9.07;7.05;;;4.00;75.60;;;3.52;58.47;94384.47;5065775;28;20787;-82
2021/01/26 10:31:48;;;;;;;8.90;6.22;;;4.10;75.60;;;3.66;58.57;94377.81;5074595;28;20242;-82
2021/01/26 10:34:34;;;;;;;10.13;6.97;;;4.20;75.60;;;3.77;58.51;94374.91;5073884;28;20289;-82
2021/01/26 10:37:34;;;;;;;9.73;7.18;;;4.30;75.80;;;3.81;58.41;94378.00;5032252;28;20212;-83
2021/01/26 10:40:34;;;;;;;8.13;6.05;;;4.40;75.60;;;3.83;57.96;94370.84;5047293;28;20226;-84
2021/01/26 10:43:12;;;;;;;9.25;7.00;;;4.50;75.60;;;3.92;57.69;94369.88;5020935;28;20631;-83
2021/01/26 10:45:48;;;;;;;10.20;7.43;;;4.50;75.40;;;3.99;58.11;94365.66;5017032;28;20227;-83
2021/01/26 10:48:37;;;;;;;8.55;7.07;;;4.60;75.60;;;4.09;57.96;94359.44;5036424;28;20598;-83
2021/01/26 10:51:30;;;;;;;9.90;6.97;;;4.70;75.30;;;4.12;57.50;94354.75;5035269;28;20314;-83
2021/01/26 10:54:01;;;;;;;10.60;7.10;;;4.70;75.30;;;4.17;57.54;94359.44;5055396;28;20200;-82
2021/01/26 10:56:27;;;;;;;10.68;7.35;;;4.80;75.50;;;4.21;57.41;94347.78;5049077;28;20220;-83
2021/01/26 10:58:54;;;;;;;7.72;6.30;;;4.90;75.20;;;4.27;57.14;94357.47;5033736;28;20577;-84
2021/01/26 11:01:23;;;;;;;9.07;7.53;;;4.90;75.40;;;4.28;55.65;94350.50;5033119;28;20244;-84
2021/01/26 11:03:53;;;;;;;8.02;6.63;;;5.00;74.50;;;4.24;55.33;94349.22;5050155;28;20257;-84
2021/01/26 11:06:23;;;;;;;9.18;6.80;;;5.10;74.20;;;4.23;55.32;94355.38;5033250;28;20299;-84
2021/01/26 11:08:50;;;;;;;8.68;6.80;;;5.00;73.90;;;4.10;54.04;94348.94;5032350;28;20239;-83
2021/01/26 11:11:26;;;;;;;8.30;5.97;;;5.10;73.00;;;4.07;54.08;94364.00;5049303;28;20220;-83
2021/01/26 11:13:55;;;;;;;7.90;5.97;;;5.00;72.50;;;4.04;53.78;94344.41;5033998;28;20549;-83